Time;durP1;ratioP1;P1;durP2;ratioP2;P2;SDS_P1;SDS_P2;PMS_P1;PMS_P2;Temp;Humidity;BMP_temperature;BMP_pressure;BME280_temperature;BME280_humidity;BME280_pressure;Samples;Min_cycle;Max_cycle;Signal;HPM_P1;HPM_P2
2023/10/17 00:01:35;;;;;;;5.45;2.80;;;;;;;;;;4923768;29;20435;-74
2023/10/17 00:04:26;;;;;;;3.10;2.78;;;;;;;;;;4913444;29;20993;-74
2023/10/17 00:06:54;;;;;;;5.15;2.97;;;;;;;;;;4928260;29;20929;-73
2023/10/17 00:09:22;;;;;;;3.28;2.50;;;;;;;;;;4920146;29;20449;-73
2023/10/17 00:14:24;;;;;;;4.88;3.20;;;;;;;;;;4922640;29;20441;-75
2023/10/17 00:16:55;;;;;;;8.85;2.95;;;;;;;;;;4922487;29;20496;-73
2023/10/17 00:19:26;;;;;;;3.87;2.70;;;;;;;;;;4914989;29;20477;-73
2023/10/17 00:21:53;;;;;;;3.92;2.80;;;;;;;;;;4928264;29;20443;-73
2023/10/17 00:24:23;;;;;;;4.82;2.30;;;;;;;;;;4922998;29;22981;-74
2023/10/17 00:26:50;;;;;;;4.53;3.00;;;;;;;;;;4919893;29;20441;-73
2023/10/17 00:29:17;;;;;;;3.80;2.70;;;;;;;;;;4916838;29;20450;-73
2023/10/17 00:31:46;;;;;;;3.60;2.70;;;;;;;;;;4920427;29;20905;-74
2023/10/17 00:34:13;;;;;;;6.32;2.83;;;;;;;;;;4905787;29;20443;-73
2023/10/17 00:39:30;;;;;;;3.27;2.80;;;;;;;;;;4927496;29;20519;-73
2023/10/17 00:44:36;;;;;;;3.78;2.53;;;;;;;;;;4916596;29;20445;-74
2023/10/17 00:47:04;;;;;;;3.63;2.80;;;;;;;;;;4926361;29;20932;-73
2023/10/17 00:49:37;;;;;;;5.60;2.50;;;;;;;;;;4918476;29;20780;-73
2023/10/17 00:52:16;;;;;;;2.67;2.45;;;;;;;;;;4923624;29;20534;-74
2023/10/17 00:54:43;;;;;;;3.53;2.40;;;;;;;;;;4929482;29;20615;-74
2023/10/17 00:57:15;;;;;;;4.63;2.55;;;;;;;;;;4928504;29;20571;-74
2023/10/17 00:59:53;;;;;;;4.20;2.45;;;;;;;;;;4921053;29;20444;-74
2023/10/17 01:02:22;;;;;;;3.72;2.45;;;;;;;;;;4921610;29;20550;-74
2023/10/17 01:04:51;;;;;;;3.42;2.22;;;;;;;;;;4921480;29;20460;-74
2023/10/17 01:07:53;;;;;;;2.78;2.58;;;;;;;;;;4921542;29;20498;-74
2023/10/17 01:10:16;;;;;;;4.85;2.80;;;;;;;;;;4915953;29;20439;-73
2023/10/17 01:13:02;;;;;;;4.47;2.50;;;;;;;;;;4926695;29;20444;-74
2023/10/17 01:15:37;;;;;;;4.70;2.47;;;;;;;;;;4919041;29;20471;-74
2023/10/17 01:18:05;;;;;;;3.13;2.13;;;;;;;;;;4919423;29;20496;-74
2023/10/17 01:20:38;;;;;;;3.92;2.30;;;;;;;;;;4920312;29;20447;-74
2023/10/17 01:23:10;;;;;;;4.63;2.58;;;;;;;;;;4923733;29;20443;-74
2023/10/17 01:25:41;;;;;;;6.43;2.55;;;;;;;;;;4927419;29;20443;-74
2023/10/17 01:28:11;;;;;;;5.45;2.00;;;;;;;;;;4925905;29;20533;-74
2023/10/17 01:30:41;;;;;;;2.90;2.30;;;;;;;;;;4928456;29;21006;-75
2023/10/17 01:33:12;;;;;;;6.40;5.78;;;;;;;;;;4929305;29;20458;-74
2023/10/17 01:35:44;;;;;;;5.53;2.70;;;;;;;;;;4925535;29;20459;-73
2023/10/17 01:38:13;;;;;;;6.22;2.33;;;;;;;;;;4909801;29;20485;-75
2023/10/17 01:40:40;;;;;;;3.85;2.45;;;;;;;;;;4928630;29;20447;-74
2023/10/17 01:43:10;;;;;;;3.30;2.08;;;;;;;;;;4927880;29;20444;-74
2023/10/17 01:45:42;;;;;;;2.10;1.90;;;;;;;;;;4923382;29;20519;-74
2023/10/17 01:48:11;;;;;;;4.00;2.30;;;;;;;;;;4924938;29;20447;-74
2023/10/17 01:50:39;;;;;;;3.33;2.10;;;;;;;;;;4925517;29;20439;-74
2023/10/17 01:53:13;;;;;;;4.35;2.10;;;;;;;;;;4924315;29;20784;-73
2023/10/17 01:56:02;;;;;;;3.50;2.53;;;;;;;;;;4921625;29;20597;-74
2023/10/17 01:58:30;;;;;;;4.30;2.47;;;;;;;;;;4925860;29;20449;-74
2023/10/17 02:00:57;;;;;;;3.80;2.55;;;;;;;;;;4922798;29;20557;-74
2023/10/17 02:03:25;;;;;;;2.60;2.40;;;;;;;;;;4921102;29;20449;-75
2023/10/17 02:05:56;;;;;;;4.18;2.53;;;;;;;;;;4919082;29;20440;-74
2023/10/17 02:08:26;;;;;;;4.30;2.90;;;;;;;;;;4917790;29;20447;-74
2023/10/17 02:10:56;;;;;;;3.05;2.50;;;;;;;;;;4924661;29;20443;-74
2023/10/17 02:13:23;;;;;;;3.35;2.47;;;;;;;;;;4917427;29;20445;-74
2023/10/17 02:15:53;;;;;;;2.92;2.40;;;;;;;;;;4924884;29;20443;-74
2023/10/17 02:18:21;;;;;;;3.92;2.63;;;;;;;;;;4926810;29;20440;-74
2023/10/17 02:20:55;;;;;;;4.63;2.42;;;;;;;;;;4926835;29;20458;-74
2023/10/17 02:23:25;;;;;;;6.97;2.57;;;;;;;;;;4928158;29;20450;-75
2023/10/17 02:25:54;;;;;;;4.18;2.50;;;;;;;;;;4922844;29;20575;-75
2023/10/17 02:28:24;;;;;;;2.90;2.60;;;;;;;;;;4927212;29;20522;-75
2023/10/17 02:30:52;;;;;;;4.57;2.42;;;;;;;;;;4921917;29;20633;-75
2023/10/17 02:33:19;;;;;;;5.88;2.67;;;;;;;;;;4927709;29;20488;-74
2023/10/17 02:36:07;;;;;;;4.68;2.90;;;;;;;;;;4927412;29;20435;-74
2023/10/17 02:38:34;;;;;;;2.85;2.65;;;;;;;;;;4923433;29;20502;-74
2023/10/17 02:41:01;;;;;;;4.80;2.80;;;;;;;;;;4917230;29;20504;-73
2023/10/17 02:43:29;;;;;;;3.78;2.75;;;;;;;;;;4925518;29;20470;-74
2023/10/17 02:46:04;;;;;;;4.07;2.90;;;;;;;;;;4920313;29;20925;-74
2023/10/17 02:48:38;;;;;;;5.90;3.30;;;;;;;;;;4927504;29;20431;-74
2023/10/17 02:51:11;;;;;;;4.55;3.05;;;;;;;;;;4923785;29;20793;-75
2023/10/17 02:53:43;;;;;;;3.78;2.75;;;;;;;;;;4927596;29;20452;-74
2023/10/17 02:56:19;;;;;;;3.22;2.83;;;;;;;;;;4915839;29;20500;-74
2023/10/17 02:59:06;;;;;;;3.73;3.07;;;;;;;;;;4921860;29;20500;-74
2023/10/17 03:01:36;;;;;;;4.70;2.80;;;;;;;;;;4918796;29;20984;-74
2023/10/17 03:04:08;;;;;;;2.95;2.65;;;;;;;;;;4915582;29;20879;-74
2023/10/17 03:06:44;;;;;;;5.22;2.80;;;;;;;;;;4924800;29;20439;-74
2023/10/17 03:12:06;;;;;;;4.40;3.15;;;;;;;;;;4921792;29;20441;-74
2023/10/17 03:14:40;;;;;;;6.05;3.00;;;;;;;;;;4912050;29;20433;-74
2023/10/17 03:17:08;;;;;;;4.22;2.75;;;;;;;;;;4916445;29;20856;-74
2023/10/17 03:19:36;;;;;;;5.13;2.90;;;;;;;;;;4926161;29;21495;-75
2023/10/17 03:22:50;;;;;;;4.63;2.78;;;;;;;;;;4916758;29;20983;-74
2023/10/17 03:25:02;;;;;;;3.27;2.80;;;;;;;;;;4915227;29;20899;-74
2023/10/17 03:27:48;;;;;;;3.42;2.60;;;;;;;;;;4918474;29;20445;-74
2023/10/17 03:30:21;;;;;;;5.53;2.83;;;;;;;;;;4920929;29;20441;-74
2023/10/17 03:35:35;;;;;;;4.80;2.60;;;;;;;;;;4924355;29;20473;-74
2023/10/17 03:38:03;;;;;;;3.13;2.40;;;;;;;;;;4923841;29;20950;-74
2023/10/17 03:40:36;;;;;;;5.95;2.53;;;;;;;;;;4923115;29;20508;-74
2023/10/17 03:43:13;;;;;;;3.95;2.72;;;;;;;;;;4908445;29;20444;-74
2023/10/17 03:45:52;;;;;;;3.90;2.83;;;;;;;;;;4927504;29;20491;-74
2023/10/17 03:48:28;;;;;;;3.45;2.42;;;;;;;;;;4926689;29;21494;-73
2023/10/17 03:50:59;;;;;;;2.97;2.40;;;;;;;;;;4924432;29;20443;-75
2023/10/17 03:53:29;;;;;;;6.43;2.77;;;;;;;;;;4912210;29;20518;-73
2023/10/17 03:56:00;;;;;;;3.53;2.35;;;;;;;;;;4916723;29;20441;-72
2023/10/17 04:01:07;;;;;;;2.97;2.03;;;;;;;;;;4928149;29;20527;-73
2023/10/17 04:03:37;;;;;;;2.60;2.30;;;;;;;;;;4923623;29;20436;-74
2023/10/17 04:08:37;;;;;;;3.05;2.60;;;;;;;;;;4922755;29;21011;-74
2023/10/17 04:13:51;;;;;;;3.38;2.47;;;;;;;;;;4928518;29;20916;-74
2023/10/17 04:16:22;;;;;;;4.53;2.55;;;;;;;;;;4926444;29;20527;-74
2023/10/17 04:19:08;;;;;;;3.58;2.47;;;;;;;;;;4921131;29;20897;-73
2023/10/17 04:21:45;;;;;;;2.80;2.20;;;;;;;;;;4921712;29;20439;-73
2023/10/17 04:24:26;;;;;;;4.65;2.60;;;;;;;;;;4923529;29;20452;-74
2023/10/17 04:27:06;;;;;;;2.38;2.17;;;;;;;;;;4916640;29;20445;-74
2023/10/17 04:29:38;;;;;;;2.38;2.17;;;;;;;;;;4925167;29;21018;-73
2023/10/17 04:32:13;;;;;;;3.23;2.40;;;;;;;;;;4927669;29;20433;-74
2023/10/17 04:34:47;;;;;;;5.55;2.63;;;;;;;;;;4923271;29;20439;-75
2023/10/17 04:37:18;;;;;;;4.22;2.28;;;;;;;;;;4924776;29;20522;-74
2023/10/17 04:39:48;;;;;;;3.78;2.15;;;;;;;;;;4923391;29;20441;-74
2023/10/17 04:42:34;;;;;;;4.63;2.10;;;;;;;;;;4924002;29;20495;-73
2023/10/17 04:45:06;;;;;;;3.47;2.20;;;;;;;;;;4920386;29;20444;-74
2023/10/17 04:47:34;;;;;;;4.80;2.28;;;;;;;;;;4927142;29;20526;-74
2023/10/17 04:50:11;;;;;;;2.40;2.20;;;;;;;;;;4919847;29;20850;-73
2023/10/17 04:52:44;;;;;;;3.00;2.17;;;;;;;;;;4927326;29;20516;-74
2023/10/17 04:55:18;;;;;;;5.00;2.22;;;;;;;;;;4918846;29;20526;-74
2023/10/17 04:58:30;;;;;;;3.45;2.15;;;;;;;;;;4922091;29;20443;-74
2023/10/17 05:03:20;;;;;;;2.30;1.80;;;;;;;;;;4929220;29;20447;-74
2023/10/17 06:18:01;;;;;;;2.60;1.95;;;;;;;;;;4919787;29;20447;-73
2023/10/17 06:23:23;;;;;;;2.88;2.38;;;;;;;;;;4917713;29;20502;-74
2023/10/17 06:33:39;;;;;;;2.97;2.08;;;;;;;;;;4921567;29;21956;-73
2023/10/17 06:36:25;;;;;;;5.30;2.45;;;;;;;;;;4918477;29;20530;-74
2023/10/17 06:38:53;;;;;;;3.03;1.90;;;;;;;;;;4919312;29;20441;-74
2023/10/17 06:41:37;;;;;;;2.67;1.80;;;;;;;;;;4920891;29;20449;-73
2023/10/17 06:44:05;;;;;;;2.60;1.47;;;;;;;;;;4925951;29;20454;-74
2023/10/17 06:46:48;;;;;;;3.60;2.00;;;;;;;;;;4918331;29;20508;-72
2023/10/17 06:55:07;;;;;;;2.75;1.90;;;;;;;;;;4854095;29;20470;-73
2023/10/17 06:57:36;;;;;;;4.57;2.08;;;;;;;;;;4853220;29;20797;-74
2023/10/17 07:00:16;;;;;;;3.22;1.83;;;;;;;;;;4864044;29;20455;-74
2023/10/17 07:02:56;;;;;;;3.08;2.05;;;;;;;;;;4864156;29;20446;-73
2023/10/17 07:05:25;;;;;;;5.30;2.05;;;;;;;;;;4866058;29;20459;-74
2023/10/17 07:07:52;;;;;;;1.95;1.65;;;;;;;;;;4861270;29;20612;-73
2023/10/17 07:13:10;;;;;;;3.90;1.90;;;;;;;;;;4872680;29;21096;-72
2023/10/17 07:15:39;;;;;;;4.20;1.70;;;;;;;;;;4827230;29;20502;-72
2023/10/17 07:23:42;;;;;;;2.70;1.80;;;;;;;;;;4864588;29;20498;-73
2023/10/17 07:26:35;;;;;;;1.98;1.80;;;;;;;;;;4863182;29;20452;-73
2023/10/17 07:29:05;;;;;;;2.15;1.95;;;;;;;;;;4869238;29;21171;-73
2023/10/17 07:31:36;;;;;;;3.50;1.83;;;;;;;;;;4887662;29;20450;-73
2023/10/17 07:36:37;;;;;;;1.93;1.80;;;;;;;;;;4922458;29;21590;-73
2023/10/17 07:42:14;;;;;;;2.78;1.88;;;;;;;;;;4872777;29;20454;-71
2023/10/17 07:44:49;;;;;;;3.25;1.88;;;;;;;;;;4871755;29;20508;-73
2023/10/17 07:47:33;;;;;;;2.58;1.70;;;;;;;;;;4856995;29;20476;-73
2023/10/17 07:50:00;;;;;;;3.03;1.83;;;;;;;;;;4871934;29;20484;-74
2023/10/17 07:52:33;;;;;;;3.80;1.90;;;;;;;;;;4871750;29;21039;-74
2023/10/17 07:57:55;;;;;;;3.55;1.98;;;;;;;;;;4871055;29;20448;-74
2023/10/17 08:00:26;;;;;;;2.33;1.60;;;;;;;;;;4874711;29;20439;-74
2023/10/17 08:03:08;;;;;;;3.33;1.83;;;;;;;;;;4872417;29;20538;-73
2023/10/17 08:05:44;;;;;;;2.00;1.73;;;;;;;;;;4872075;29;20472;-74
2023/10/17 08:08:15;;;;;;;2.70;1.67;;;;;;;;;;4872959;29;20452;-73
2023/10/17 08:10:45;;;;;;;1.85;1.50;;;;;;;;;;4872105;29;20528;-74
2023/10/17 08:13:19;;;;;;;2.97;1.70;;;;;;;;;;4872469;29;20436;-73
2023/10/17 08:15:53;;;;;;;1.88;1.70;;;;;;;;;;4870985;29;20448;-74
2023/10/17 08:18:28;;;;;;;1.67;1.57;;;;;;;;;;4890944;29;20441;-73
2023/10/17 08:23:46;;;;;;;3.13;1.55;;;;;;;;;;4925041;29;20541;-74
2023/10/17 08:26:17;;;;;;;2.80;1.58;;;;;;;;;;4927944;29;20482;-74
2023/10/17 08:34:16;;;;;;;3.30;1.58;;;;;;;;;;4853392;29;20446;-74
2023/10/17 08:36:47;;;;;;;2.03;1.40;;;;;;;;;;4853265;29;20450;-74
2023/10/17 08:42:05;;;;;;;1.75;1.65;;;;;;;;;;4851743;29;20450;-73
2023/10/17 08:44:38;;;;;;;2.10;1.50;;;;;;;;;;4853241;29;20442;-71
2023/10/17 08:47:16;;;;;;;3.10;1.40;;;;;;;;;;4852652;29;20442;-73
2023/10/17 08:49:44;;;;;;;2.33;1.42;;;;;;;;;;4842874;29;20441;-73
2023/10/17 08:52:35;;;;;;;1.83;1.45;;;;;;;;;;4863153;29;20821;-73
2023/10/17 08:55:04;;;;;;;2.58;1.63;;;;;;;;;;4862192;29;20529;-74
2023/10/17 08:57:32;;;;;;;1.95;1.30;;;;;;;;;;4856256;29;21341;-74
2023/10/17 09:02:33;;;;;;;2.23;1.50;;;;;;;;;;4852314;29;20462;-72
2023/10/17 09:05:05;;;;;;;2.90;1.50;;;;;;;;;;4852512;29;20506;-72
2023/10/17 09:07:32;;;;;;;1.77;1.57;;;;;;;;;;4861697;29;20511;-73
2023/10/17 09:10:05;;;;;;;1.50;1.40;;;;;;;;;;4897702;29;20529;-72
2023/10/17 09:15:27;;;;;;;1.85;1.45;;;;;;;;;;4920335;29;20451;-70
2023/10/17 09:18:07;;;;;;;1.50;1.40;;;;;;;;;;4928560;29;20553;-72
2023/10/17 09:20:35;;;;;;;1.92;1.60;;;;;;;;;;4930651;29;20514;-74
2023/10/17 09:23:02;;;;;;;1.50;1.40;;;;;;;;;;4918181;29;20804;-74
2023/10/17 09:25:36;;;;;;;2.70;1.77;;;;;;;;;;4923768;29;20448;-70
2023/10/17 09:28:04;;;;;;;2.50;1.40;;;;;;;;;;4911955;29;20441;-73
2023/10/17 09:30:32;;;;;;;1.58;1.48;;;;;;;;;;4917588;29;20440;-73
2023/10/17 09:33:01;;;;;;;4.38;1.70;;;;;;;;;;4926521;29;20443;-74
2023/10/17 09:35:29;;;;;;;1.70;1.60;;;;;;;;;;4922642;29;20439;-71
2023/10/17 09:37:58;;;;;;;1.80;1.55;;;;;;;;;;4924021;29;20487;-74
2023/10/17 09:40:33;;;;;;;3.28;1.48;;;;;;;;;;4918367;29;20448;-73
2023/10/17 09:43:00;;;;;;;1.38;1.27;;;;;;;;;;4917844;29;20855;-72
2023/10/17 09:45:34;;;;;;;1.75;1.27;;;;;;;;;;4925930;29;20442;-70
2023/10/17 09:48:07;;;;;;;3.00;1.73;;;;;;;;;;4926307;29;20526;-72
2023/10/17 09:50:36;;;;;;;1.50;1.40;;;;;;;;;;4922256;29;21139;-73
2023/10/17 09:53:32;;;;;;;2.10;1.70;;;;;;;;;;4928236;29;20444;-70
2023/10/17 09:56:01;;;;;;;3.35;1.60;;;;;;;;;;4907539;29;20524;-72
2023/10/17 09:58:29;;;;;;;2.20;1.65;;;;;;;;;;4922769;29;20463;-72
2023/10/17 10:01:05;;;;;;;2.10;1.42;;;;;;;;;;4922297;29;20448;-70
2023/10/17 10:03:35;;;;;;;3.10;1.70;;;;;;;;;;4929383;29;20443;-74
2023/10/17 10:06:21;;;;;;;1.83;1.60;;;;;;;;;;4919861;29;20462;-73
2023/10/17 10:08:54;;;;;;;2.58;1.67;;;;;;;;;;4917017;29;20444;-74
2023/10/17 10:11:21;;;;;;;3.55;1.80;;;;;;;;;;4921979;29;20452;-74
2023/10/17 10:14:05;;;;;;;2.90;1.50;;;;;;;;;;4924442;29;20431;-69
2023/10/17 10:16:55;;;;;;;1.85;1.58;;;;;;;;;;4925683;29;20520;-71
2023/10/17 10:19:27;;;;;;;2.17;1.40;;;;;;;;;;4916128;29;20435;-73
2023/10/17 10:21:55;;;;;;;3.17;1.40;;;;;;;;;;4920547;29;20513;-71
2023/10/17 10:24:26;;;;;;;2.20;1.88;;;;;;;;;;4922932;29;20439;-73
2023/10/17 10:27:29;;;;;;;2.35;1.77;;;;;;;;;;4921098;29;20454;-72
2023/10/17 10:30:18;;;;;;;2.20;1.65;;;;;;;;;;4903722;29;20437;-72
2023/10/17 10:32:47;;;;;;;3.10;1.88;;;;;;;;;;4925383;29;20439;-73
2023/10/17 10:35:15;;;;;;;2.15;1.92;;;;;;;;;;4921644;29;20459;-73
2023/10/17 10:37:53;;;;;;;1.70;1.60;;;;;;;;;;4916531;29;20524;-72
2023/10/17 10:40:24;;;;;;;1.67;1.58;;;;;;;;;;4921745;29;20914;-71
2023/10/17 10:42:52;;;;;;;2.33;1.70;;;;;;;;;;4921583;29;20449;-70
2023/10/17 10:45:24;;;;;;;1.50;1.40;;;;;;;;;;4922630;29;20516;-72
2023/10/17 10:48:01;;;;;;;1.50;1.33;;;;;;;;;;4932224;29;20443;-70
2023/10/17 10:50:33;;;;;;;1.70;1.50;;;;;;;;;;4913638;29;20505;-69
2023/10/17 10:53:02;;;;;;;1.48;1.38;;;;;;;;;;4931427;29;20438;-70
2023/10/17 10:55:32;;;;;;;1.50;1.40;;;;;;;;;;4925655;29;20518;-73
2023/10/17 10:58:03;;;;;;;3.97;1.92;;;;;;;;;;4930694;29;20439;-72
2023/10/17 11:00:31;;;;;;;2.45;1.80;;;;;;;;;;4926681;29;20890;-72
2023/10/17 11:02:58;;;;;;;3.50;1.80;;;;;;;;;;4929406;29;20526;-71
2023/10/17 11:05:26;;;;;;;1.65;1.55;;;;;;;;;;4923196;29;20473;-70
2023/10/17 11:08:00;;;;;;;2.38;1.60;;;;;;;;;;4926777;29;20465;-70
2023/10/17 11:10:31;;;;;;;2.33;1.73;;;;;;;;;;4930876;29;20469;-71
2023/10/17 11:12:58;;;;;;;1.95;1.60;;;;;;;;;;4922413;29;20498;-73
2023/10/17 11:15:27;;;;;;;2.25;1.75;;;;;;;;;;4931211;29;20443;-69
2023/10/17 11:18:01;;;;;;;2.05;1.60;;;;;;;;;;4908236;29;20444;-70
2023/10/17 11:20:32;;;;;;;1.92;1.40;;;;;;;;;;4930033;29;20938;-74
2023/10/17 11:22:59;;;;;;;1.42;1.33;;;;;;;;;;4930535;29;21002;-73
2023/10/17 11:25:27;;;;;;;1.60;1.50;;;;;;;;;;4922711;29;20437;-72
2023/10/17 11:28:06;;;;;;;2.33;1.52;;;;;;;;;;4926003;29;20522;-73
2023/10/17 11:30:40;;;;;;;1.75;1.50;;;;;;;;;;4919622;29;20450;-73
2023/10/17 11:33:14;;;;;;;4.25;1.50;;;;;;;;;;4923528;29;20445;-73
2023/10/17 11:35:47;;;;;;;1.85;1.50;;;;;;;;;;4927225;29;20442;-70
2023/10/17 11:38:33;;;;;;;2.03;1.37;;;;;;;;;;4924731;29;20993;-73
2023/10/17 11:41:10;;;;;;;1.58;1.35;;;;;;;;;;4923868;29;20912;-73
2023/10/17 11:43:42;;;;;;;1.75;1.50;;;;;;;;;;4921629;29;20536;-73
2023/10/17 11:46:12;;;;;;;1.67;1.52;;;;;;;;;;4921292;29;20536;-72
2023/10/17 11:48:44;;;;;;;1.67;1.58;;;;;;;;;;4925995;29;21026;-73
2023/10/17 11:51:18;;;;;;;3.00;1.55;;;;;;;;;;4918829;29;20512;-73
2023/10/17 11:54:05;;;;;;;4.22;1.88;;;;;;;;;;4920957;29;20865;-71
2023/10/17 11:56:48;;;;;;;4.97;1.80;;;;;;;;;;4925521;29;20466;-73
2023/10/17 11:59:18;;;;;;;1.40;1.20;;;;;;;;;;4928713;29;20453;-73
2023/10/17 12:01:52;;;;;;;1.67;1.38;;;;;;;;;;4900277;29;20476;-73
2023/10/17 12:04:20;;;;;;;1.43;1.20;;;;;;;;;;4920323;29;20448;-71
2023/10/17 12:06:52;;;;;;;1.55;1.20;;;;;;;;;;4919202;29;20470;-68
2023/10/17 12:11:54;;;;;;;1.35;1.33;;;;;;;;;;4926499;29;20540;-71
2023/10/17 12:14:22;;;;;;;2.72;1.45;;;;;;;;;;4921493;29;20846;-72
2023/10/17 12:16:53;;;;;;;1.30;1.10;;;;;;;;;;4931371;29;20439;-72
2023/10/17 12:19:27;;;;;;;1.75;1.15;;;;;;;;;;4928923;29;20534;-69
2023/10/17 12:22:00;;;;;;;1.67;1.27;;;;;;;;;;4925976;29;20794;-71
2023/10/17 12:24:34;;;;;;;1.40;1.10;;;;;;;;;;4924172;29;20439;-68
2023/10/17 12:27:02;;;;;;;2.00;1.10;;;;;;;;;;4923087;29;20516;-69
2023/10/17 12:29:29;;;;;;;2.93;1.37;;;;;;;;;;4920508;29;20439;-66
2023/10/17 12:32:01;;;;;;;2.10;1.37;;;;;;;;;;4925096;29;20440;-67
2023/10/17 12:34:28;;;;;;;1.40;1.20;;;;;;;;;;4927117;29;20508;-67
2023/10/17 12:36:56;;;;;;;1.50;1.40;;;;;;;;;;4920886;29;20538;-69
2023/10/17 12:39:23;;;;;;;3.75;1.23;;;;;;;;;;4925704;29;20443;-70
2023/10/17 12:41:51;;;;;;;1.30;1.20;;;;;;;;;;4929235;29;20814;-67
2023/10/17 12:44:18;;;;;;;2.20;1.40;;;;;;;;;;4917346;29;20476;-67
2023/10/17 12:46:46;;;;;;;1.27;1.17;;;;;;;;;;4920028;29;20445;-69
2023/10/17 12:49:15;;;;;;;2.40;1.33;;;;;;;;;;4920090;29;20440;-69
2023/10/17 12:51:43;;;;;;;1.25;1.23;;;;;;;;;;4926050;29;20442;-69
2023/10/17 12:54:10;;;;;;;3.90;1.38;;;;;;;;;;4921534;29;20447;-70
2023/10/17 12:56:39;;;;;;;2.88;1.27;;;;;;;;;;4920818;29;20506;-69
2023/10/17 12:59:14;;;;;;;2.30;1.30;;;;;;;;;;4922425;29;20450;-67
2023/10/17 13:01:44;;;;;;;1.60;1.40;;;;;;;;;;4922647;29;20536;-70
2023/10/17 13:04:12;;;;;;;2.05;1.17;;;;;;;;;;4925187;29;20856;-72
2023/10/17 13:06:41;;;;;;;2.45;1.42;;;;;;;;;;4923156;29;20443;-71
2023/10/17 13:09:09;;;;;;;1.43;1.27;;;;;;;;;;4927539;29;20915;-70
2023/10/17 13:11:36;;;;;;;1.45;1.35;;;;;;;;;;4918638;29;20504;-68
2023/10/17 13:14:05;;;;;;;1.15;1.10;;;;;;;;;;4924326;29;20537;-70
2023/10/17 13:16:35;;;;;;;1.67;1.20;;;;;;;;;;4922572;29;20439;-69
2023/10/17 13:19:06;;;;;;;2.35;1.08;;;;;;;;;;4928748;29;20525;-70
2023/10/17 13:21:37;;;;;;;1.10;1.10;;;;;;;;;;4919432;29;20647;-67
2023/10/17 13:24:07;;;;;;;1.42;1.10;;;;;;;;;;4924608;29;20475;-68
2023/10/17 13:26:37;;;;;;;1.40;1.30;;;;;;;;;;4921583;29;20901;-69
2023/10/17 13:29:04;;;;;;;1.20;1.20;;;;;;;;;;4916076;29;20531;-67
2023/10/17 13:31:33;;;;;;;1.42;1.15;;;;;;;;;;4919288;29;20448;-71
2023/10/17 13:34:00;;;;;;;1.70;1.10;;;;;;;;;;4904684;29;20516;-71
2023/10/17 13:36:28;;;;;;;2.72;1.50;;;;;;;;;;4927388;29;20494;-68
2023/10/17 13:38:55;;;;;;;3.10;1.20;;;;;;;;;;4925524;29;20439;-73
2023/10/17 13:41:27;;;;;;;1.25;1.20;;;;;;;;;;4940243;29;20448;-71
2023/10/17 13:43:54;;;;;;;2.53;1.00;;;;;;;;;;4929233;29;21053;-72
2023/10/17 13:46:22;;;;;;;1.37;1.20;;;;;;;;;;4927720;29;20847;-71
2023/10/17 13:48:49;;;;;;;1.42;1.20;;;;;;;;;;4924378;29;20927;-73
2023/10/17 13:51:18;;;;;;;1.45;1.30;;;;;;;;;;4918530;29;20439;-67
2023/10/17 13:53:50;;;;;;;1.85;1.52;;;;;;;;;;4916218;29;20494;-70
2023/10/17 13:56:21;;;;;;;1.40;1.30;;;;;;;;;;4926663;29;20982;-68
2023/10/17 13:58:49;;;;;;;1.17;0.95;;;;;;;;;;4922154;29;21034;-71
2023/10/17 14:01:32;;;;;;;1.95;1.17;;;;;;;;;;4924845;29;20480;-70
2023/10/17 14:04:01;;;;;;;2.10;1.33;;;;;;;;;;4914863;29;20464;-70
2023/10/17 14:06:51;;;;;;;1.90;1.20;;;;;;;;;;4920327;29;20439;-69
2023/10/17 14:09:16;;;;;;;1.30;1.20;;;;;;;;;;4925100;29;20447;-68
2023/10/17 14:11:46;;;;;;;1.93;1.30;;;;;;;;;;4919220;29;20438;-67
2023/10/17 14:14:15;;;;;;;1.83;1.08;;;;;;;;;;4928214;29;20467;-70
2023/10/17 14:16:43;;;;;;;1.75;0.90;;;;;;;;;;4924087;29;20515;-70
2023/10/17 14:27:22;;;;;;;1.27;1.10;;;;;;;;;;4926813;29;20431;-70
2023/10/17 14:29:50;;;;;;;1.35;1.25;;;;;;;;;;4925182;29;21069;-68
2023/10/17 14:32:18;;;;;;;2.42;1.40;;;;;;;;;;4908940;29;20524;-69
2023/10/17 14:34:45;;;;;;;1.13;1.00;;;;;;;;;;4916120;29;20443;-71
2023/10/17 14:37:13;;;;;;;1.77;1.20;;;;;;;;;;4920008;29;21172;-69
2023/10/17 14:39:42;;;;;;;1.00;0.90;;;;;;;;;;4914114;29;20914;-69
2023/10/17 14:42:13;;;;;;;3.28;1.10;;;;;;;;;;4925026;29;20443;-71
2023/10/17 14:44:49;;;;;;;2.00;1.07;;;;;;;;;;4914668;29;21063;-71
2023/10/17 14:47:19;;;;;;;1.47;1.10;;;;;;;;;;4925089;29;20443;-70
2023/10/17 14:49:47;;;;;;;1.20;1.10;;;;;;;;;;4918072;29;20441;-70
2023/10/17 14:52:15;;;;;;;3.63;1.20;;;;;;;;;;4925256;29;20435;-71
2023/10/17 14:54:48;;;;;;;2.30;1.05;;;;;;;;;;4912928;29;20437;-71
2023/10/17 14:57:16;;;;;;;1.60;1.27;;;;;;;;;;4920522;29;20498;-70
2023/10/17 14:59:44;;;;;;;1.88;1.02;;;;;;;;;;4923627;29;20471;-71
2023/10/17 15:02:14;;;;;;;2.45;1.40;;;;;;;;;;4917844;29;20441;-69
2023/10/17 15:04:41;;;;;;;1.20;0.93;;;;;;;;;;4916812;29;20440;-69
2023/10/17 15:07:09;;;;;;;2.10;1.13;;;;;;;;;;4928666;29;20958;-68
2023/10/17 15:09:36;;;;;;;1.52;1.05;;;;;;;;;;4927546;29;20455;-67
2023/10/17 15:12:04;;;;;;;1.33;1.15;;;;;;;;;;4925964;29;20443;-67
2023/10/17 15:14:31;;;;;;;1.20;1.10;;;;;;;;;;4921066;29;21050;-69
2023/10/17 15:16:59;;;;;;;1.48;1.17;;;;;;;;;;4919235;29;21058;-70
2023/10/17 15:19:27;;;;;;;2.35;1.05;;;;;;;;;;4921874;29;20444;-69
2023/10/17 15:21:56;;;;;;;1.55;1.38;;;;;;;;;;4918822;29;20447;-67
2023/10/17 15:24:26;;;;;;;2.38;1.05;;;;;;;;;;4926992;29;20439;-69
2023/10/17 15:26:58;;;;;;;1.00;1.00;;;;;;;;;;4924209;29;20943;-71
2023/10/17 15:29:29;;;;;;;1.88;1.15;;;;;;;;;;4900901;29;20558;-71
2023/10/17 15:31:56;;;;;;;2.30;1.17;;;;;;;;;;4924742;29;20554;-71
2023/10/17 15:34:29;;;;;;;1.98;1.17;;;;;;;;;;4917757;29;20443;-71
2023/10/17 15:36:56;;;;;;;1.40;1.00;;;;;;;;;;4929081;29;20527;-70
2023/10/17 15:39:29;;;;;;;0.90;0.90;;;;;;;;;;4927734;29;20937;-70
2023/10/17 15:41:57;;;;;;;1.52;0.80;;;;;;;;;;4926891;29;20542;-69
2023/10/17 15:44:24;;;;;;;1.90;1.10;;;;;;;;;;4904615;29;20817;-70
2023/10/17 15:46:53;;;;;;;2.50;1.10;;;;;;;;;;4917264;29;20442;-71
2023/10/17 15:49:21;;;;;;;3.27;1.20;;;;;;;;;;4922362;29;20979;-71
2023/10/17 15:51:53;;;;;;;1.50;1.00;;;;;;;;;;4918745;29;20475;-71
2023/10/17 15:54:21;;;;;;;1.60;1.00;;;;;;;;;;4925453;29;20948;-71
2023/10/17 15:56:49;;;;;;;2.50;1.00;;;;;;;;;;4917689;29;20957;-70
2023/10/17 15:59:16;;;;;;;5.05;1.05;;;;;;;;;;4923444;29;20447;-71
2023/10/17 16:01:46;;;;;;;1.27;0.93;;;;;;;;;;4924136;29;20451;-71
2023/10/17 16:04:14;;;;;;;1.88;1.10;;;;;;;;;;4929304;29;20537;-71
2023/10/17 16:06:43;;;;;;;1.60;0.90;;;;;;;;;;4927364;29;20803;-71
2023/10/17 16:09:15;;;;;;;1.05;0.90;;;;;;;;;;4922998;29;21207;-71
2023/10/17 16:11:43;;;;;;;1.30;1.10;;;;;;;;;;4928677;29;20440;-71
2023/10/17 16:14:10;;;;;;;2.38;1.05;;;;;;;;;;4927407;29;20492;-71
2023/10/17 16:16:43;;;;;;;2.17;1.27;;;;;;;;;;4920190;29;20469;-71
2023/10/17 16:19:10;;;;;;;3.43;1.70;;;;;;;;;;4921726;29;20444;-71
2023/10/17 16:21:41;;;;;;;1.67;1.15;;;;;;;;;;4906243;29;20446;-71
2023/10/17 16:24:08;;;;;;;2.03;1.38;;;;;;;;;;4923523;29;20524;-71
2023/10/17 16:26:35;;;;;;;3.45;1.77;;;;;;;;;;4924066;29;20524;-71
2023/10/17 16:29:04;;;;;;;2.83;2.25;;;;;;;;;;4930204;29;20443;-72
2023/10/17 16:31:33;;;;;;;4.70;2.10;;;;;;;;;;4925776;29;20447;-71
2023/10/17 16:34:03;;;;;;;1.50;1.40;;;;;;;;;;4925792;29;20439;-71
2023/10/17 16:36:31;;;;;;;1.45;1.33;;;;;;;;;;4923169;29;20511;-71
2023/10/17 16:39:00;;;;;;;2.13;1.20;;;;;;;;;;4919227;29;20441;-72
2023/10/17 16:41:28;;;;;;;1.17;1.10;;;;;;;;;;4926854;29;20986;-70
2023/10/17 16:43:59;;;;;;;4.63;1.33;;;;;;;;;;4917206;29;20440;-71
2023/10/17 16:46:29;;;;;;;1.25;1.15;;;;;;;;;;4919917;29;20932;-71
2023/10/17 16:48:59;;;;;;;1.20;1.10;;;;;;;;;;4926781;29;20443;-71
2023/10/17 16:51:28;;;;;;;2.83;1.23;;;;;;;;;;4928484;29;20439;-71
2023/10/17 16:53:56;;;;;;;2.08;1.35;;;;;;;;;;4924115;29;20439;-70
2023/10/17 16:56:23;;;;;;;1.70;1.40;;;;;;;;;;4921118;29;20435;-71
2023/10/17 16:58:50;;;;;;;3.00;1.23;;;;;;;;;;4924735;29;20450;-71
2023/10/17 17:01:17;;;;;;;1.40;1.30;;;;;;;;;;4921882;29;20532;-71
2023/10/17 17:03:45;;;;;;;3.08;1.50;;;;;;;;;;4924017;29;20471;-71
2023/10/17 17:06:12;;;;;;;2.13;1.30;;;;;;;;;;4926750;29;20506;-70
2023/10/17 17:08:40;;;;;;;1.67;1.25;;;;;;;;;;4925785;29;20449;-71
2023/10/17 17:11:07;;;;;;;2.60;1.50;;;;;;;;;;4924691;29;20491;-71
2023/10/17 17:13:34;;;;;;;1.30;1.20;;;;;;;;;;4920043;29;20512;-71
2023/10/17 17:16:02;;;;;;;3.40;1.45;;;;;;;;;;4925166;29;20456;-70
2023/10/17 17:18:33;;;;;;;1.67;1.58;;;;;;;;;;4903038;29;20446;-72
2023/10/17 17:21:13;;;;;;;4.00;1.90;;;;;;;;;;4935632;29;20523;-72
2023/10/17 17:23:40;;;;;;;4.43;1.70;;;;;;;;;;4920016;29;20514;-71
2023/10/17 17:26:08;;;;;;;3.40;1.80;;;;;;;;;;4917962;29;20530;-71
2023/10/17 17:28:35;;;;;;;3.33;2.38;;;;;;;;;;4928616;29;20984;-71
2023/10/17 17:31:09;;;;;;;3.47;2.38;;;;;;;;;;4912005;29;20883;-71
2023/10/17 17:33:36;;;;;;;2.08;1.80;;;;;;;;;;4923367;29;20451;-72
2023/10/17 17:36:06;;;;;;;2.30;2.10;;;;;;;;;;4924018;29;20458;-71
2023/10/17 17:38:35;;;;;;;2.00;1.90;;;;;;;;;;4922634;29;20914;-71
2023/10/17 17:41:08;;;;;;;5.38;3.03;;;;;;;;;;4914377;29;20606;-71
2023/10/17 17:43:35;;;;;;;5.22;3.10;;;;;;;;;;4925522;29;20533;-73
2023/10/17 17:46:04;;;;;;;5.95;2.80;;;;;;;;;;4916339;29;20444;-72